createdAt,value
2023-04-19T00:01:01.710Z,94.54
2023-04-19T00:06:08.371Z,94.41
2023-04-19T00:11:11.781Z,95.02
2023-04-19T00:16:14.946Z,95.65
2023-04-19T00:21:19.317Z,96.06
2023-04-19T00:26:22.461Z,93.69
2023-04-19T00:31:28.416Z,92.73
2023-04-19T00:36:32.913Z,93.65
2023-04-19T00:41:36.009Z,92.30
2023-04-19T00:46:41.211Z,94.49
2023-04-19T00:51:46.056Z,92.57
2023-04-19T00:56:49.563Z,91.98
2023-04-19T01:01:53.288Z,94.14
2023-04-19T01:06:58.510Z,93.98
2023-04-19T01:12:03.579Z,93.85
2023-04-19T01:17:07.578Z,94.17
2023-04-19T01:22:20.505Z,92.87
2023-04-19T01:27:23.909Z,95.05
2023-04-19T01:32:27.412Z,95.01
2023-04-19T01:37:36.446Z,95.05
2023-04-19T01:42:39.496Z,94.45
2023-04-19T01:47:42.778Z,95.19
2023-04-19T01:52:47.174Z,95.49
2023-04-19T01:57:50.221Z,93.78
2023-04-19T02:02:53.803Z,93.76
2023-04-19T02:08:01.407Z,94.43
2023-04-19T02:13:06.913Z,94.80
2023-04-19T02:18:10.077Z,92.85
2023-04-19T02:23:15.007Z,94.20
2023-04-19T02:28:18.244Z,96.46
2023-04-19T02:33:23.235Z,93.77
2023-04-19T02:38:27.725Z,94.75
2023-04-19T02:43:30.692Z,94.03
2023-04-19T02:48:33.825Z,95.07
2023-04-19T02:53:38.201Z,94.61
2023-04-19T02:58:41.194Z,94.84
2023-04-19T03:03:44.565Z,94.82
2023-04-19T03:08:51.475Z,94.32
2023-04-19T03:13:55.302Z,95.99
2023-04-19T03:18:58.385Z,94.14
2023-04-19T03:24:06.830Z,94.89
2023-04-19T03:29:10.987Z,95.72
2023-04-19T03:34:22.257Z,94.16
2023-04-19T03:39:28.289Z,95.05
2023-04-19T03:44:36.853Z,95.02
2023-04-19T03:49:42.023Z,94.83
2023-04-19T03:54:46.858Z,94.87
2023-04-19T04:00:02.112Z,94.79
2023-04-19T04:05:07.058Z,94.96
2023-04-19T04:10:13.120Z,95.17
2023-04-19T04:15:19.537Z,94.67
2023-04-19T04:20:27.332Z,94.36
2023-04-19T04:25:39.267Z,95.70
2023-04-19T04:30:47.211Z,95.51
2023-04-19T04:35:51.414Z,95.22
2023-04-19T04:40:59.937Z,96.31
2023-04-19T04:46:04.319Z,95.90
2023-04-19T04:51:12.705Z,95.08
2023-04-19T04:56:19.838Z,94.58
2023-04-19T05:01:24.202Z,95.58
2023-04-19T05:06:28.097Z,96.18
2023-04-19T05:11:32.779Z,96.38
2023-04-19T05:16:35.976Z,96.52
2023-04-19T05:21:40.385Z,97.05
2023-04-19T05:26:46.850Z,96.45
2023-04-19T05:31:50.894Z,95.30
2023-04-19T05:37:14.304Z,95.72
2023-04-19T05:42:19.618Z,95.83
2023-04-19T05:47:22.740Z,95.57
2023-04-19T05:52:58.804Z,95.78
2023-04-19T05:58:03.350Z,95.09
2023-04-19T06:03:07.086Z,94.76
2023-04-19T06:08:10.580Z,94.20
2023-04-19T06:13:15.070Z,93.77
2023-04-19T06:18:19.345Z,93.62
2023-04-19T06:23:23.613Z,92.59
2023-04-19T06:28:28.140Z,92.67
2023-04-19T06:33:31.160Z,92.42
2023-04-19T06:38:34.144Z,91.94
2023-04-19T06:43:39.530Z,91.79
2023-04-19T06:48:43.094Z,91.33
2023-04-19T06:53:46.270Z,90.97
2023-04-19T06:58:51.204Z,90.35
2023-04-19T07:03:56.510Z,90.40
2023-04-19T07:09:00.442Z,89.06
2023-04-19T07:14:04.836Z,88.07
2023-04-19T07:19:07.805Z,88.34
2023-04-19T07:24:10.877Z,86.90
2023-04-19T07:29:15.358Z,86.90
2023-04-19T07:34:18.511Z,86.22
2023-04-19T07:39:21.680Z,85.96
2023-04-19T07:44:26.163Z,84.34
2023-04-19T07:49:33.854Z,83.53
2023-04-19T07:54:39.272Z,82.91
2023-04-19T07:59:43.979Z,82.98
2023-04-19T08:04:49.836Z,78.62
2023-04-19T08:09:53.061Z,80.06
2023-04-19T08:15:05.152Z,78.42
2023-04-19T08:20:13.089Z,77.07
2023-04-19T08:25:16.729Z,77.83
2023-04-19T08:30:21.722Z,75.57
2023-04-19T08:35:25.322Z,74.67
2023-04-19T08:40:28.626Z,72.14
2023-04-19T08:45:34.455Z,71.93
2023-04-19T08:50:48.755Z,69.43
2023-04-19T08:56:12.760Z,70.57
2023-04-19T09:01:33.764Z,70.88
2023-04-19T09:06:38.425Z,67.23
2023-04-19T09:11:41.880Z,66.07
2023-04-19T09:16:47.201Z,60.26
2023-04-19T09:21:52.026Z,66.72
2023-04-19T09:26:57.925Z,66.66
2023-04-19T09:32:02.669Z,63.57
2023-04-19T09:37:48.073Z,65.57
2023-04-19T09:48:07.788Z,51.97
2023-04-19T09:53:12.189Z,57.81
2023-04-19T09:58:15.643Z,58.90
2023-04-19T10:03:22.156Z,58.00
2023-04-19T10:08:28.346Z,59.67
2023-04-19T10:13:31.638Z,51.89
2023-04-19T10:18:36.652Z,56.91
2023-04-19T10:23:40.350Z,52.28
2023-04-19T10:28:43.836Z,49.58
2023-04-19T10:33:49.570Z,52.99
2023-04-19T10:38:53.762Z,54.32
2023-04-19T10:44:11.266Z,52.93
2023-04-19T10:49:16.259Z,53.19
2023-04-19T10:54:37.577Z,53.73
2023-04-19T10:59:43.322Z,56.32
2023-04-19T11:05:14.039Z,52.00
2023-04-19T11:10:29.720Z,45.99
2023-04-19T11:15:32.787Z,53.99
2023-04-19T11:20:37.093Z,55.18
2023-04-19T11:25:40.336Z,47.80
2023-04-19T11:30:44.468Z,52.93
2023-04-19T11:35:49.381Z,48.44
2023-04-19T11:41:00.571Z,51.97
2023-04-19T11:46:07.565Z,50.22
2023-04-19T11:51:12.907Z,54.60
2023-04-19T11:56:16.984Z,57.23
2023-04-19T12:01:22.372Z,51.93
2023-04-19T12:06:28.209Z,49.37
2023-04-19T12:11:44.483Z,55.07
2023-04-19T12:16:47.886Z,53.21
2023-04-19T12:21:52.528Z,48.09
2023-04-19T12:26:57.512Z,44.17
2023-04-19T12:32:01.883Z,44.62
2023-04-19T12:37:06.318Z,45.05
2023-04-19T12:42:09.385Z,51.36
2023-04-19T12:47:12.372Z,49.63
2023-04-19T12:52:16.879Z,43.82
2023-04-19T12:57:19.945Z,48.07
2023-04-19T13:02:23.131Z,51.96
2023-04-19T13:07:28.648Z,41.74
2023-04-19T13:12:31.642Z,46.01
2023-04-19T13:17:34.718Z,47.91
2023-04-19T13:22:39.302Z,43.01
2023-04-19T13:27:42.420Z,43.22
2023-04-19T13:32:45.610Z,41.50
2023-04-19T13:37:52.094Z,45.53
2023-04-19T13:42:57.217Z,35.58
2023-04-19T13:48:00.432Z,44.21
2023-04-19T13:53:04.904Z,42.43
2023-04-19T13:58:08.000Z,45.67
2023-04-19T14:03:11.386Z,42.11
2023-04-19T14:08:15.971Z,44.02
2023-04-19T14:13:21.962Z,46.71
2023-04-19T14:18:25.364Z,48.21
2023-04-19T14:23:29.807Z,38.25
2023-04-19T14:28:32.835Z,43.84
2023-04-19T14:33:36.399Z,38.39
2023-04-19T14:38:45.415Z,37.10
2023-04-19T14:43:48.859Z,44.40
2023-04-19T14:48:51.937Z,41.25
2023-04-19T14:53:56.564Z,45.89
2023-04-19T14:58:59.992Z,43.63
2023-04-19T15:04:03.310Z,41.55
2023-04-19T15:09:08.042Z,42.97
2023-04-19T15:14:11.198Z,42.37
2023-04-19T15:19:14.798Z,41.16
2023-04-19T15:24:19.798Z,39.82
2023-04-19T15:29:24.210Z,44.23
2023-04-19T15:34:27.511Z,43.15
2023-04-19T15:39:31.959Z,39.48
2023-04-19T15:44:35.050Z,39.29
2023-04-19T15:49:38.059Z,39.25
2023-04-19T15:54:42.422Z,41.90
2023-04-19T15:59:45.626Z,43.39
2023-04-19T16:04:49.410Z,39.42
2023-04-19T16:09:54.128Z,39.16
2023-04-19T16:14:57.400Z,42.32
2023-04-19T16:20:00.308Z,38.96
2023-04-19T16:25:07.214Z,39.98
2023-04-19T16:30:11.212Z,41.59
2023-04-19T16:35:14.358Z,44.38
2023-04-19T16:40:18.910Z,41.00
2023-04-19T16:45:23.424Z,43.48
2023-04-19T16:50:26.533Z,41.03
2023-04-19T16:55:34.009Z,43.10
2023-04-19T17:00:37.385Z,41.19
2023-04-19T17:05:40.604Z,44.47
2023-04-19T17:10:45.047Z,43.52
2023-04-19T17:15:48.605Z,44.31
2023-04-19T17:20:52.002Z,46.13
2023-04-19T17:25:56.381Z,46.06
2023-04-19T17:30:59.376Z,44.30
2023-04-19T17:36:02.357Z,44.18
2023-04-19T17:41:08.920Z,44.81
2023-04-19T17:46:13.200Z,43.94
2023-04-19T17:51:16.645Z,47.90
2023-04-19T17:56:21.462Z,46.43
2023-04-19T18:01:25.138Z,45.88
2023-04-19T18:06:28.347Z,48.44
2023-04-19T18:11:32.794Z,48.24
2023-04-19T18:16:35.870Z,49.04
2023-04-19T18:21:39.317Z,50.55
2023-04-19T18:26:44.568Z,47.68
2023-04-19T18:31:47.682Z,47.86
2023-04-19T18:36:56.049Z,48.17
2023-04-19T18:42:03.811Z,48.88
2023-04-19T18:47:07.416Z,50.17
2023-04-19T18:52:10.806Z,49.94
2023-04-19T19:02:21.764Z,50.60
2023-04-19T19:07:34.880Z,50.18
2023-04-19T19:12:40.012Z,52.23
2023-04-19T19:17:43.771Z,51.42
2023-04-19T19:22:46.997Z,50.97
2023-04-19T19:28:06.262Z,52.05
2023-04-19T19:33:10.006Z,50.89
2023-04-19T19:38:13.107Z,52.32
2023-04-19T19:43:17.993Z,51.63
2023-04-19T19:48:21.201Z,52.17
2023-04-19T19:53:25.955Z,52.42
2023-04-19T19:58:47.581Z,51.70
2023-04-19T20:03:55.668Z,52.80
2023-04-19T20:08:59.741Z,53.49
2023-04-19T20:14:04.566Z,52.77
2023-04-19T20:19:10.447Z,53.34
2023-04-19T20:24:14.042Z,50.40
2023-04-19T20:29:18.761Z,52.41
2023-04-19T20:34:22.532Z,52.65
2023-04-19T20:39:26.711Z,52.16
2023-04-19T20:44:31.557Z,51.53
2023-04-19T20:49:34.563Z,52.02
2023-04-19T20:54:39.049Z,51.09
2023-04-19T20:59:45.253Z,50.25
2023-04-19T21:04:50.332Z,51.61
2023-04-19T21:09:53.895Z,52.15
2023-04-19T21:14:58.475Z,52.12
2023-04-19T21:20:02.252Z,53.21
2023-04-19T21:25:05.964Z,54.35
2023-04-19T21:30:12.225Z,54.31
2023-04-19T21:35:15.243Z,51.37
2023-04-19T21:40:18.333Z,53.63
2023-04-19T21:45:23.003Z,53.62
2023-04-19T21:50:26.079Z,53.60
2023-04-19T21:55:29.406Z,52.76
2023-04-19T22:00:33.869Z,52.38
2023-04-19T22:05:37.575Z,54.37
2023-04-19T22:10:41.242Z,55.44
2023-04-19T22:15:46.095Z,54.30
2023-04-19T22:20:50.901Z,54.09
2023-04-19T22:25:53.946Z,53.66
2023-04-19T22:30:58.482Z,53.19
2023-04-19T22:36:01.764Z,53.11
2023-04-19T22:41:05.550Z,54.12
2023-04-19T22:46:10.518Z,52.89
2023-04-19T22:51:13.681Z,52.38
2023-04-19T22:56:18.016Z,52.72
2023-04-19T23:01:22.522Z,50.96
2023-04-19T23:06:25.845Z,50.87
2023-04-19T23:11:30.033Z,50.25
2023-04-19T23:16:34.628Z,50.87
2023-04-19T23:21:37.719Z,50.36
2023-04-19T23:26:41.211Z,51.30
2023-04-19T23:31:45.818Z,50.58
2023-04-19T23:36:48.951Z,50.47
2023-04-19T23:41:52.173Z,50.86
2023-04-19T23:46:56.719Z,50.65
2023-04-19T23:51:59.901Z,49.62
2023-04-19T23:57:03.007Z,50.74
